Time;durP1;ratioP1;P1;durP2;ratioP2;P2;SDS_P1;SDS_P2;PMS_P1;PMS_P2;Temp;Humidity;BMP_temperature;BMP_pressure;BME280_temperature;BME280_humidity;BME280_pressure;Samples;Min_cycle;Max_cycle;Signal;HPM_P1;HPM_P2
2022/10/19 00:01:52;;;;;;;14.63;5.80;;;;;;;41.77;34.50;101214.69;4994625;28;20425;-70
2022/10/19 00:04:18;;;;;;;13.77;6.60;;;;;;;41.91;34.43;101216.41;4994762;28;20410;-70
2022/10/19 00:06:45;;;;;;;9.40;5.10;;;;;;;42.03;34.08;101214.59;4994540;28;20414;-69
2022/10/19 00:09:14;;;;;;;12.70;5.83;;;;;;;42.07;33.95;101199.19;4994567;28;20464;-71
2022/10/19 00:11:43;;;;;;;11.20;5.50;;;;;;;42.10;33.53;101189.56;4994456;28;20539;-71
2022/10/19 00:14:13;;;;;;;14.87;6.90;;;;;;;42.03;33.83;101192.00;4994379;28;20463;-72
2022/10/19 00:16:39;;;;;;;15.87;6.07;;;;;;;41.96;34.06;101188.97;4994532;28;20524;-71
2022/10/19 00:19:11;;;;;;;8.27;5.97;;;;;;;41.90;33.91;101180.19;4994283;28;20513;-70
2022/10/19 00:21:38;;;;;;;13.23;6.07;;;;;;;42.11;33.42;101174.78;4994155;28;20469;-70
2022/10/19 00:24:05;;;;;;;11.90;5.73;;;;;;;42.11;33.77;101174.78;4994323;28;20472;-70
2022/10/19 00:26:32;;;;;;;13.90;6.17;;;;;;;41.93;34.25;101179.53;4994339;28;20926;-71
2022/10/19 00:28:59;;;;;;;11.10;4.80;;;;;;;41.82;34.11;101181.03;4995877;28;20437;-70
2022/10/19 00:31:25;;;;;;;13.70;6.97;;;;;;;41.93;34.22;101171.38;4994096;28;20850;-70
2022/10/19 00:33:52;;;;;;;12.97;5.70;;;;;;;42.11;33.67;101169.34;4994126;28;20453;-71
2022/10/19 00:36:24;;;;;;;9.13;6.17;;;;;;;41.91;33.82;101175.53;4995534;28;20433;-70
2022/10/19 00:38:51;;;;;;;14.63;6.70;;;;;;;42.05;33.57;101182.38;4994120;28;20948;-71
2022/10/19 00:41:18;;;;;;;15.10;8.30;;;;;;;42.05;34.08;101184.28;4994111;28;20456;-70
2022/10/19 00:43:53;;;;;;;11.37;5.77;;;;;;;42.29;33.35;101167.34;4995480;28;20901;-70
2022/10/19 00:46:19;;;;;;;12.37;6.30;;;;;;;42.40;33.35;101169.38;4994002;28;20421;-71
2022/10/19 00:48:45;;;;;;;11.20;5.87;;;;;;;42.26;33.50;101174.28;4993744;28;20933;-71
2022/10/19 00:51:12;;;;;;;10.27;6.93;;;;;;;42.33;33.62;101168.31;4995371;28;20457;-72
2022/10/19 00:53:39;;;;;;;13.97;6.30;;;;;;;41.98;33.79;101170.38;4993644;28;20417;-72
2022/10/19 00:56:11;;;;;;;12.40;6.13;;;;;;;41.88;34.07;101178.94;4993692;28;20445;-72
2022/10/19 00:58:38;;;;;;;8.60;6.20;;;;;;;42.13;33.45;101175.28;4993722;28;20417;-72
2022/10/19 01:01:08;;;;;;;12.33;5.73;;;;;;;42.37;33.61;101177.44;4993647;28;20464;-70
2022/10/19 01:03:34;;;;;;;11.83;5.83;;;;;;;42.21;33.71;101171.72;4993562;28;20457;-70
2022/10/19 01:06:00;;;;;;;18.07;6.43;;;;;;;42.16;33.71;101171.91;4993438;28;20453;-70
2022/10/19 01:08:27;;;;;;;11.93;7.60;;;;;;;42.19;33.65;101159.56;4993045;28;20863;-70
2022/10/19 01:11:14;;;;;;;11.67;6.67;;;;;;;41.98;33.94;101165.72;4993366;28;20465;-70
2022/10/19 01:13:54;;;;;;;9.77;5.80;;;;;;;41.75;34.06;101165.19;4993453;28;20508;-70
2022/10/19 01:16:26;;;;;;;10.03;6.27;;;;;;;41.99;33.73;101161.06;4992469;28;20491;-70
2022/10/19 01:19:30;;;;;;;13.03;7.40;;;;;;;41.71;34.50;101153.31;4982611;28;20442;-70
2022/10/19 01:22:05;;;;;;;19.10;7.00;;;;;;;41.85;34.20;101150.38;4973517;28;20466;-70
2022/10/19 01:24:43;;;;;;;17.03;6.43;;;;;;;41.88;34.05;101152.47;4973765;28;20421;-70
2022/10/19 01:27:19;;;;;;;10.57;7.50;;;;;;;41.90;33.64;101149.41;4973651;28;20982;-70
2022/10/19 01:30:07;;;;;;;13.20;7.17;;;;;;;41.86;33.57;101144.59;4973654;28;20422;-70
2022/10/19 01:32:48;;;;;;;10.30;5.77;;;;;;;41.82;33.50;101143.69;4972133;28;21010;-70
2022/10/19 01:35:24;;;;;;;12.77;6.73;;;;;;;41.92;33.89;101138.97;4990020;28;20445;-70
2022/10/19 01:38:13;;;;;;;19.10;6.97;;;;;;;41.80;33.89;101131.50;4973453;28;20446;-70
2022/10/19 01:40:44;;;;;;;10.93;5.93;;;;;;;41.85;33.85;101123.94;4969492;28;20560;-70
2022/10/19 01:43:54;;;;;;;10.83;6.70;;;;;;;41.48;34.77;101111.88;4973704;28;20484;-70
2022/10/19 01:46:40;;;;;;;11.93;6.43;;;;;;;41.74;34.52;101114.56;4975705;28;20489;-70
2022/10/19 01:49:18;;;;;;;18.23;6.70;;;;;;;41.90;33.96;101105.81;4981837;28;20434;-71
2022/10/19 01:51:53;;;;;;;21.67;8.73;;;;;;;41.81;34.00;101111.31;4973258;28;20454;-70
2022/10/19 01:54:21;;;;;;;13.30;8.00;;;;;;;42.14;33.44;101098.63;4973291;28;20449;-70
2022/10/19 01:56:49;;;;;;;23.73;7.83;;;;;;;42.19;33.56;101099.59;4973034;28;20423;-70
2022/10/19 01:59:18;;;;;;;11.50;6.10;;;;;;;42.13;33.56;101094.31;4973146;28;20494;-70
2022/10/19 02:01:46;;;;;;;12.87;7.70;;;;;;;42.01;33.83;101087.97;4973073;28;20442;-71
2022/10/19 02:04:16;;;;;;;13.63;6.50;;;;;;;42.11;33.66;101082.13;4973022;28;20422;-72
2022/10/19 02:06:43;;;;;;;16.43;7.33;;;;;;;41.71;34.11;101073.50;4973100;28;20518;-71
2022/10/19 02:09:09;;;;;;;12.37;6.93;;;;;;;41.83;34.01;101060.81;4972887;28;20453;-70
2022/10/19 02:11:37;;;;;;;17.63;9.20;;;;;;;41.49;34.63;101066.38;4972899;28;20458;-70
2022/10/19 02:14:12;;;;;;;16.97;7.27;;;;;;;41.44;34.83;101064.66;4988981;28;20931;-70
2022/10/19 02:16:48;;;;;;;18.33;7.33;;;;;;;41.70;34.27;101072.72;4975236;28;20448;-70
2022/10/19 02:19:15;;;;;;;11.57;7.23;;;;;;;41.53;34.31;101076.31;4981881;28;20958;-71
2022/10/19 02:21:41;;;;;;;15.30;7.77;;;;;;;41.66;34.25;101071.75;4991861;28;20841;-70
2022/10/19 02:24:07;;;;;;;12.60;6.70;;;;;;;41.74;34.29;101072.84;4992032;28;20567;-69
2022/10/19 02:26:33;;;;;;;14.17;6.53;;;;;;;41.64;34.11;101068.56;4992262;28;20441;-70
2022/10/19 02:28:59;;;;;;;18.03;7.73;;;;;;;41.47;34.34;101074.88;4992090;28;20427;-71
2022/10/19 02:31:26;;;;;;;10.70;6.73;;;;;;;41.67;34.26;101072.56;4993501;28;20438;-70
2022/10/19 02:33:53;;;;;;;11.80;6.30;;;;;;;41.63;34.12;101069.72;4992119;28;20450;-70
2022/10/19 02:36:19;;;;;;;13.80;7.53;;;;;;;42.02;34.03;101070.50;4991995;28;20429;-71
2022/10/19 02:38:45;;;;;;;17.27;8.23;;;;;;;41.90;34.10;101073.91;4991970;28;20428;-70
2022/10/19 02:41:30;;;;;;;12.00;7.03;;;;;;;41.93;34.15;101077.91;4992041;28;20961;-70
2022/10/19 02:44:04;;;;;;;12.10;6.13;;;;;;;41.79;34.01;101073.47;4991945;28;20428;-70
2022/10/19 02:46:42;;;;;;;13.50;7.40;;;;;;;41.98;33.93;101073.06;4991851;28;20449;-69
2022/10/19 02:49:10;;;;;;;14.57;5.73;;;;;;;42.18;33.97;101082.44;4991986;28;20460;-70
2022/10/19 02:51:53;;;;;;;13.07;6.00;;;;;;;42.00;33.84;101076.28;4993335;28;20453;-70
2022/10/19 02:54:19;;;;;;;17.17;8.20;;;;;;;42.02;33.73;101075.94;4991924;28;20925;-70
2022/10/19 02:56:45;;;;;;;11.13;6.40;;;;;;;42.13;33.74;101082.59;4975546;28;20428;-71
2022/10/19 02:59:11;;;;;;;17.20;7.37;;;;;;;41.88;33.81;101078.91;4991885;28;20508;-71
2022/10/19 03:01:37;;;;;;;13.53;5.97;;;;;;;42.08;33.75;101082.78;4991040;28;20437;-71
2022/10/19 03:04:03;;;;;;;17.20;7.80;;;;;;;42.22;33.60;101091.53;4980731;28;20861;-70
2022/10/19 03:06:29;;;;;;;12.47;7.63;;;;;;;42.33;33.34;101086.50;4972395;28;20529;-70
2022/10/19 03:08:55;;;;;;;12.93;7.10;;;;;;;42.33;32.88;101087.31;4972264;28;21026;-70
2022/10/19 03:11:20;;;;;;;17.30;7.93;;;;;;;42.32;33.20;101076.75;4972210;28;20468;-71
2022/10/19 03:13:46;;;;;;;12.77;7.00;;;;;;;42.26;32.87;101069.88;4973863;28;20410;-70
2022/10/19 03:16:13;;;;;;;22.07;7.50;;;;;;;42.27;32.94;101066.81;4972137;28;21013;-70
2022/10/19 03:18:39;;;;;;;12.00;5.93;;;;;;;42.17;32.93;101069.94;4973818;28;20391;-70
2022/10/19 03:21:08;;;;;;;12.60;6.70;;;;;;;42.14;32.91;101071.38;4988257;28;20968;-70
2022/10/19 03:23:34;;;;;;;12.13;6.77;;;;;;;42.26;33.00;101070.69;4991519;28;21074;-71
2022/10/19 03:26:00;;;;;;;11.67;7.10;;;;;;;42.25;33.03;101080.00;4991622;28;20418;-71
2022/10/19 03:28:26;;;;;;;14.47;7.30;;;;;;;42.03;33.37;101069.34;4991499;28;20456;-70
2022/10/19 03:30:52;;;;;;;12.03;7.00;;;;;;;42.04;33.22;101073.66;4993001;28;20445;-70
2022/10/19 03:33:18;;;;;;;11.50;6.67;;;;;;;41.98;33.74;101075.00;4995349;28;20933;-70
2022/10/19 03:35:44;;;;;;;17.20;7.10;;;;;;;41.87;33.43;101066.41;4995206;28;20433;-70
2022/10/19 03:38:10;;;;;;;12.07;6.50;;;;;;;41.96;33.34;101066.34;4995155;28;20595;-72
2022/10/19 03:40:37;;;;;;;14.00;6.90;;;;;;;42.06;33.36;101066.78;4995256;28;20508;-71
2022/10/19 03:43:03;;;;;;;15.00;6.43;;;;;;;42.18;33.08;101068.03;4995145;28;20413;-71
2022/10/19 03:45:29;;;;;;;20.80;8.13;;;;;;;42.01;33.39;101066.16;4994881;28;20452;-71
2022/10/19 03:47:55;;;;;;;13.40;7.57;;;;;;;42.14;33.11;101065.13;4994954;28;21040;-71
2022/10/19 03:50:21;;;;;;;15.90;9.60;;;;;;;42.13;33.24;101071.72;4994903;28;21030;-71
2022/10/19 03:52:48;;;;;;;15.97;8.30;;;;;;;42.13;33.25;101068.97;4996151;28;21000;-71
2022/10/19 03:55:15;;;;;;;9.50;6.73;;;;;;;42.18;33.43;101070.75;4994922;28;20516;-71
2022/10/19 03:57:41;;;;;;;13.60;7.73;;;;;;;42.13;33.50;101058.06;4994736;28;20421;-70
2022/10/19 04:00:09;;;;;;;13.97;7.87;;;;;;;42.17;33.55;101060.94;4996155;28;20492;-71
2022/10/19 04:02:35;;;;;;;17.93;8.60;;;;;;;42.01;33.77;101055.28;4994664;28;20420;-71
2022/10/19 04:05:01;;;;;;;20.73;8.97;;;;;;;41.90;33.40;101048.59;4994639;28;20420;-70
2022/10/19 04:07:27;;;;;;;17.80;8.43;;;;;;;42.00;33.61;101054.47;4994465;28;20426;-70
2022/10/19 04:09:53;;;;;;;15.83;7.93;;;;;;;42.03;33.47;101055.72;4994576;28;20794;-71
2022/10/19 04:12:19;;;;;;;15.43;8.20;;;;;;;41.88;33.75;101051.66;4994374;28;20464;-71
2022/10/19 04:14:45;;;;;;;12.73;7.70;;;;;;;42.02;33.77;101052.22;4994548;28;20432;-71
2022/10/19 04:17:10;;;;;;;16.90;9.50;;;;;;;42.06;33.64;101053.16;4994881;28;20424;-70
2022/10/19 04:19:36;;;;;;;19.17;8.63;;;;;;;41.92;33.74;101052.59;4994321;28;20520;-71
2022/10/19 04:22:02;;;;;;;12.30;9.20;;;;;;;41.77;33.75;101059.41;4994176;28;20497;-71
2022/10/19 04:24:28;;;;;;;13.37;7.00;;;;;;;41.85;33.82;101052.31;4994533;28;20425;-70
2022/10/19 04:26:55;;;;;;;13.00;7.30;;;;;;;41.98;33.71;101062.16;4994357;28;20501;-70
2022/10/19 04:29:23;;;;;;;11.73;6.57;;;;;;;41.81;34.05;101057.63;4994388;28;20997;-70
2022/10/19 04:31:52;;;;;;;12.40;6.90;;;;;;;41.75;33.84;101058.94;4994179;28;20445;-71
2022/10/19 04:34:19;;;;;;;15.67;6.60;;;;;;;41.89;33.62;101061.44;4994138;28;20413;-71
2022/10/19 04:36:45;;;;;;;19.23;7.70;;;;;;;41.78;33.61;101062.94;4994037;28;20917;-71
2022/10/19 04:39:11;;;;;;;11.03;6.30;;;;;;;41.65;33.78;101063.94;4994336;28;20428;-70
2022/10/19 04:41:37;;;;;;;10.50;6.90;;;;;;;41.82;33.67;101067.41;4993498;28;20460;-71
2022/10/19 04:44:07;;;;;;;14.60;8.93;;;;;;;41.97;33.32;101059.78;4993818;28;20436;-70
2022/10/19 04:46:34;;;;;;;19.90;12.27;;;;;;;42.01;33.64;101063.44;4993983;28;20409;-70
2022/10/19 04:49:00;;;;;;;14.73;11.00;;;;;;;41.85;33.77;101064.00;4993834;28;20417;-71
2022/10/19 04:51:27;;;;;;;15.60;11.27;;;;;;;41.71;34.08;101060.69;4995425;28;20452;-70
2022/10/19 04:53:55;;;;;;;17.97;12.40;;;;;;;41.76;34.02;101065.19;4993730;28;20413;-70
2022/10/19 04:56:22;;;;;;;19.97;13.33;;;;;;;41.40;34.94;101065.63;4995448;28;20386;-70
2022/10/19 04:58:48;;;;;;;23.03;12.20;;;;;;;41.56;34.93;101053.09;4993605;28;20405;-70
2022/10/19 05:01:19;;;;;;;13.43;10.73;;;;;;;41.50;34.94;101068.00;4993655;28;20445;-71
2022/10/19 05:03:46;;;;;;;21.10;11.67;;;;;;;41.31;35.40;101069.16;4993632;28;20409;-72
2022/10/19 05:06:14;;;;;;;22.93;16.07;;;;;;;40.85;35.92;101069.84;4993515;28;20491;-71
2022/10/19 05:08:40;;;;;;;24.73;14.80;;;;;;;41.27;35.75;101072.84;4993477;28;20536;-71
2022/10/19 05:11:11;;;;;;;24.57;15.90;;;;;;;41.12;35.42;101070.63;4993312;28;20611;-71
2022/10/19 05:13:37;;;;;;;19.50;13.50;;;;;;;41.14;35.36;101071.91;4993466;28;20512;-71
2022/10/19 05:16:06;;;;;;;21.73;14.97;;;;;;;41.19;35.55;101068.19;4993385;28;20531;-70
2022/10/19 05:18:33;;;;;;;26.70;16.17;;;;;;;41.41;35.41;101075.38;4992834;28;20422;-71
2022/10/19 05:21:13;;;;;;;22.63;13.43;;;;;;;41.52;35.05;101068.47;5004363;28;20420;-70
2022/10/19 05:23:40;;;;;;;29.77;15.10;;;;;;;41.51;34.56;101078.56;5012231;28;20436;-71
2022/10/19 05:26:10;;;;;;;21.87;13.33;;;;;;;41.50;34.80;101076.16;5014332;28;20770;-71
2022/10/19 05:28:37;;;;;;;18.40;13.00;;;;;;;41.54;34.59;101071.66;5013222;28;20416;-70
2022/10/19 05:31:10;;;;;;;29.10;11.90;;;;;;;41.25;35.35;101073.19;5012355;28;20429;-71
2022/10/19 05:33:37;;;;;;;17.87;10.40;;;;;;;41.43;35.01;101078.56;5012598;28;20475;-70
2022/10/19 05:36:33;;;;;;;25.93;11.40;;;;;;;41.49;34.98;101086.25;5011938;28;20936;-71
2022/10/19 05:39:06;;;;;;;21.80;11.03;;;;;;;41.54;34.94;101085.28;5012232;28;20491;-71
2022/10/19 05:41:33;;;;;;;22.27;12.50;;;;;;;41.59;34.80;101096.00;5008938;28;20429;-71
2022/10/19 05:44:00;;;;;;;16.90;10.47;;;;;;;41.30;35.00;101093.97;5011939;28;20429;-71
2022/10/19 05:46:28;;;;;;;20.10;11.83;;;;;;;41.54;35.06;101099.69;5010296;28;20424;-71
2022/10/19 05:48:56;;;;;;;24.30;12.13;;;;;;;41.08;35.42;101114.81;4993315;28;20445;-70
2022/10/19 05:51:23;;;;;;;20.23;11.80;;;;;;;41.32;35.71;101117.06;4992647;28;21020;-70
2022/10/19 05:53:49;;;;;;;23.90;15.80;;;;;;;41.27;35.36;101119.13;5002033;28;20448;-71
2022/10/19 05:56:21;;;;;;;25.30;14.23;;;;;;;41.20;35.61;101116.09;5011745;28;20416;-69
2022/10/19 05:58:47;;;;;;;23.10;14.40;;;;;;;41.28;35.32;101112.53;5007993;28;20971;-70
2022/10/19 06:01:14;;;;;;;30.50;16.10;;;;;;;41.32;35.12;101121.69;5012931;28;20492;-71
2022/10/19 06:03:41;;;;;;;23.97;16.63;;;;;;;40.92;35.97;101124.59;5011947;28;20518;-70
2022/10/19 06:06:08;;;;;;;29.93;16.37;;;;;;;41.07;36.26;101126.84;5011526;28;20504;-70
2022/10/19 06:08:35;;;;;;;28.53;17.53;;;;;;;41.14;35.59;101129.06;5011673;28;20420;-69
2022/10/19 06:11:35;;;;;;;23.10;15.57;;;;;;;41.39;35.59;101127.44;5006099;28;20971;-71
2022/10/19 06:14:04;;;;;;;19.90;14.90;;;;;;;41.41;35.37;101129.84;4942379;28;20428;-72
2022/10/19 06:16:31;;;;;;;30.90;15.63;;;;;;;41.21;35.37;101137.53;4993168;28;20418;-72
2022/10/19 06:18:58;;;;;;;19.80;15.20;;;;;;;41.18;35.91;101134.66;4991764;28;20802;-71
2022/10/19 06:21:27;;;;;;;29.37;16.67;;;;;;;41.31;35.27;101134.50;4991848;28;20441;-70
2022/10/19 06:23:56;;;;;;;27.87;18.70;;;;;;;41.32;35.40;101138.00;4993218;28;20429;-70
2022/10/19 06:26:23;;;;;;;33.10;19.03;;;;;;;40.99;35.97;101148.59;4990690;28;20422;-70
2022/10/19 06:28:53;;;;;;;21.53;15.43;;;;;;;41.07;36.09;101150.53;4992083;28;20917;-69
2022/10/19 06:31:19;;;;;;;23.40;16.80;;;;;;;41.41;35.32;101146.97;4991914;28;20536;-70
2022/10/19 06:33:46;;;;;;;32.37;20.03;;;;;;;41.25;35.55;101165.72;4975326;28;20461;-70
2022/10/19 06:36:14;;;;;;;32.13;18.07;;;;;;;40.63;36.64;101165.97;4992092;28;20417;-69
2022/10/19 06:38:41;;;;;;;37.20;18.90;;;;;;;40.84;36.19;101170.81;4991458;28;20434;-69
2022/10/19 06:41:08;;;;;;;29.27;17.57;;;;;;;40.91;36.55;101168.44;4991983;28;20429;-70
2022/10/19 06:43:34;;;;;;;26.10;17.77;;;;;;;41.00;35.94;101161.06;4991225;28;20445;-70
2022/10/19 06:46:13;;;;;;;33.23;17.60;;;;;;;41.23;35.65;101161.72;4990783;28;20511;-69
2022/10/19 06:48:40;;;;;;;30.10;17.30;;;;;;;41.38;35.69;101169.41;4990609;28;20428;-71
2022/10/19 06:51:06;;;;;;;30.00;18.03;;;;;;;41.44;35.24;101168.13;4991370;28;21061;-70
2022/10/19 06:53:33;;;;;;;31.60;19.00;;;;;;;40.92;36.46;101168.13;4991757;28;20492;-69
2022/10/19 06:56:01;;;;;;;27.70;17.80;;;;;;;41.14;35.98;101175.34;4992428;28;20496;-70
2022/10/19 06:58:27;;;;;;;32.20;18.43;;;;;;;41.54;35.11;101180.59;4991695;28;20425;-70
2022/10/19 07:00:58;;;;;;;22.47;14.10;;;;;;;41.79;34.74;101177.00;4991186;28;20436;-70
2022/10/19 07:03:25;;;;;;;24.73;15.87;;;;;;;41.65;34.52;101184.56;4991777;28;20425;-70
2022/10/19 07:06:02;;;;;;;23.73;14.63;;;;;;;41.28;35.46;101180.59;4991238;28;20417;-70
2022/10/19 07:08:30;;;;;;;30.53;14.80;;;;;;;41.48;35.61;101182.69;4995804;28;20424;-69
2022/10/19 07:10:59;;;;;;;32.07;13.90;;;;;;;41.45;35.02;101180.59;4995830;28;20484;-70
2022/10/19 07:13:27;;;;;;;23.63;14.70;;;;;;;41.78;35.01;101183.59;4995570;28;20469;-70
2022/10/19 07:16:07;;;;;;;24.70;15.10;;;;;;;41.75;34.93;101188.91;4996916;28;20422;-73
2022/10/19 07:18:35;;;;;;;22.70;12.83;;;;;;;41.95;34.61;101192.84;4997052;28;20485;-69
2022/10/19 07:21:03;;;;;;;21.67;14.90;;;;;;;42.06;34.45;101194.06;4996699;28;20523;-70
2022/10/19 07:23:31;;;;;;;24.63;13.33;;;;;;;41.95;34.55;101206.47;4994847;28;20479;-68
2022/10/19 07:26:02;;;;;;;22.23;10.60;;;;;;;41.85;34.47;101210.34;4994830;28;20465;-75
2022/10/19 07:28:29;;;;;;;14.83;8.20;;;;;;;42.09;33.97;101209.75;4994931;28;20453;-74
2022/10/19 07:30:56;;;;;;;11.77;8.70;;;;;;;41.77;34.13;101211.97;4994810;28;20463;-68
2022/10/19 07:33:22;;;;;;;17.30;7.83;;;;;;;42.01;33.86;101221.50;4995319;28;20532;-70
2022/10/19 07:35:48;;;;;;;18.80;10.00;;;;;;;41.63;34.47;101232.31;4995172;28;20520;-74
2022/10/19 07:38:14;;;;;;;18.93;9.40;;;;;;;41.41;34.64;101238.75;4996280;28;20428;-69
2022/10/19 07:40:40;;;;;;;17.57;11.37;;;;;;;41.98;34.00;101236.56;4994096;28;20507;-69
2022/10/19 07:43:06;;;;;;;14.10;9.00;;;;;;;41.72;34.36;101247.50;4994601;28;20423;-69
2022/10/19 07:45:32;;;;;;;15.60;10.83;;;;;;;41.90;34.21;101251.03;4991668;28;21000;-68
2022/10/19 07:47:59;;;;;;;14.57;9.37;;;;;;;42.00;33.82;101255.34;4994483;28;20457;-69
2022/10/19 08:21:43;;;;;;;14.80;9.60;;;;;;;41.45;35.95;101294.97;5170797;27;20607;-74
2022/10/19 08:24:11;;;;;;;23.80;9.60;;;;;;;41.64;35.45;101300.09;5166992;27;20827;-73
2022/10/19 08:26:38;;;;;;;16.97;9.60;;;;;;;41.43;35.68;101301.84;5161402;27;20421;-74
2022/10/19 08:29:22;;;;;;;16.90;9.67;;;;;;;41.64;35.23;101302.00;5155766;27;20464;-72
2022/10/19 08:31:49;;;;;;;16.43;9.60;;;;;;;42.01;35.01;101309.53;5156377;27;20410;-74
2022/10/19 08:34:15;;;;;;;19.93;10.27;;;;;;;42.13;34.74;101303.41;5149759;27;20858;-74
2022/10/19 08:36:42;;;;;;;15.00;10.40;;;;;;;41.85;34.69;101314.66;5149525;27;20422;-76
2022/10/19 08:39:11;;;;;;;22.97;12.30;;;;;;;41.84;34.76;101306.81;5150996;27;20406;-72
2022/10/19 08:41:40;;;;;;;17.07;11.63;;;;;;;41.72;34.69;101315.63;5159198;27;20721;-72
2022/10/19 08:44:39;;;;;;;20.77;9.80;;;;;;;41.57;34.88;101308.75;5152532;27;20413;-72
2022/10/19 08:47:36;;;;;;;14.43;9.60;;;;;;;41.94;34.92;101327.50;5155515;27;20437;-72
2022/10/19 08:50:13;;;;;;;19.00;8.50;;;;;;;42.03;34.31;101322.81;5159757;27;20460;-72
2022/10/19 08:52:41;;;;;;;18.97;9.37;;;;;;;41.94;34.51;101325.56;5152881;27;20414;-73
2022/10/19 08:55:12;;;;;;;11.97;8.03;;;;;;;41.99;34.37;101316.41;5150711;27;20441;-73
2022/10/19 08:57:56;;;;;;;23.27;10.57;;;;;;;41.94;34.69;101313.88;5148649;27;21188;-73
2022/10/19 09:00:34;;;;;;;14.63;8.90;;;;;;;41.68;35.09;101314.69;5150780;27;20416;-73
2022/10/19 09:03:22;;;;;;;14.83;9.47;;;;;;;42.11;34.33;101309.19;5148295;27;20424;-73
2022/10/19 09:06:00;;;;;;;28.77;11.10;;;;;;;42.54;34.00;101301.97;5147420;27;20416;-75
2022/10/19 09:08:27;;;;;;;17.60;10.30;;;;;;;42.21;34.19;101299.88;5161074;27;20424;-73
2022/10/19 09:10:54;;;;;;;17.10;10.50;;;;;;;42.69;33.70;101304.19;5148170;27;20493;-72
2022/10/19 09:13:43;;;;;;;14.80;9.00;;;;;;;42.70;33.59;101308.50;5133810;27;20417;-73
2022/10/19 09:16:14;;;;;;;25.10;11.20;;;;;;;42.76;33.67;101309.13;5137128;27;20976;-73
2022/10/19 09:18:42;;;;;;;19.50;12.60;;;;;;;42.77;33.51;101305.25;5147330;27;20422;-73
2022/10/19 09:21:11;;;;;;;25.67;12.23;;;;;;;42.70;33.63;101313.16;5112452;28;20542;-72
2022/10/19 09:23:40;;;;;;;13.47;9.57;;;;;;;42.56;33.74;101311.44;5132200;27;20584;-74
2022/10/19 09:26:18;;;;;;;18.77;10.63;;;;;;;42.46;33.82;101298.16;5125632;27;20419;-72
2022/10/19 09:29:07;;;;;;;16.53;10.77;;;;;;;42.14;34.60;101302.25;5134633;27;20422;-72
2022/10/19 09:31:35;;;;;;;17.10;9.77;;;;;;;42.54;34.13;101296.50;5134607;27;20514;-73
2022/10/19 09:34:13;;;;;;;19.30;9.53;;;;;;;42.14;34.45;101296.81;5134760;27;20952;-72
2022/10/19 09:36:50;;;;;;;16.53;9.33;;;;;;;42.68;33.98;101291.69;5103824;27;20416;-72
2022/10/19 09:39:17;;;;;;;17.30;9.70;;;;;;;42.86;33.51;101286.91;5134718;27;20914;-72
2022/10/19 09:42:04;;;;;;;19.83;11.93;;;;;;;42.55;33.68;101285.28;5121247;27;20416;-73
2022/10/19 09:44:30;;;;;;;20.30;11.57;;;;;;;42.92;33.64;101275.47;5124483;27;20928;-74
2022/10/19 09:47:28;;;;;;;16.80;10.43;;;;;;;42.46;33.85;101281.78;5131227;27;20420;-72
2022/10/19 10:16:23;;;;;;;16.30;9.83;;;;;;;42.46;34.47;101264.63;5160080;27;20292;-69
2022/10/19 10:19:17;;;;;;;25.73;9.57;;;;;;;42.12;34.80;101263.63;5129024;27;20523;-67
2022/10/19 10:21:54;;;;;;;12.40;7.67;;;;;;;42.41;34.01;101251.97;5145654;27;20960;-66
2022/10/19 10:24:22;;;;;;;14.43;9.77;;;;;;;42.33;34.32;101256.34;5149568;27;20469;-67
2022/10/19 10:26:55;;;;;;;23.77;9.53;;;;;;;42.69;34.15;101260.53;5152684;27;20413;-67
2022/10/19 10:29:26;;;;;;;13.27;8.30;;;;;;;42.83;33.66;101258.34;5149493;27;20836;-67
2022/10/19 10:32:05;;;;;;;20.67;8.97;;;;;;;42.70;33.63;101262.13;5150780;27;20892;-67
2022/10/19 10:34:32;;;;;;;15.67;9.03;;;;;;;42.66;33.76;101258.44;5128942;27;20595;-67
2022/10/19 10:36:59;;;;;;;14.50;9.03;;;;;;;42.48;34.00;101262.38;5147435;27;20495;-69
2022/10/19 10:39:27;;;;;;;14.23;10.57;;;;;;;42.77;33.86;101251.47;5128539;28;20926;-69
2022/10/19 10:41:56;;;;;;;22.10;11.50;;;;;;;42.78;33.80;101249.56;5145160;27;20475;-69
2022/10/19 10:44:29;;;;;;;16.73;11.07;;;;;;;42.92;33.68;101242.72;5132025;27;21015;-68
2022/10/19 10:47:00;;;;;;;14.13;9.30;;;;;;;42.78;33.69;101238.63;5149511;27;20512;-67
2022/10/19 10:49:34;;;;;;;15.43;10.83;;;;;;;42.93;33.42;101238.88;5149326;27;20423;-67
2022/10/19 10:52:05;;;;;;;13.83;8.47;;;;;;;42.78;33.46;101233.97;5150847;27;20944;-68
2022/10/19 10:54:32;;;;;;;11.93;8.57;;;;;;;43.18;32.79;101234.34;5132240;27;20419;-68
2022/10/19 10:57:14;;;;;;;15.30;8.77;;;;;;;43.23;32.67;101238.81;5148952;27;20436;-69
2022/10/19 10:59:58;;;;;;;13.70;9.37;;;;;;;43.16;32.69;101233.09;5149057;27;20789;-68
2022/10/19 11:02:47;;;;;;;21.03;7.73;;;;;;;43.12;32.85;101224.78;5148836;27;20533;-68
2022/10/19 11:05:31;;;;;;;11.50;8.90;;;;;;;43.09;32.91;101222.69;5149433;27;20503;-67
2022/10/19 11:08:30;;;;;;;16.60;9.80;;;;;;;43.41;32.65;101218.44;5114231;27;20819;-70
2022/10/19 11:11:54;;;;;;;15.60;7.13;;;;;;;43.45;32.69;101213.88;5113707;27;20425;-69
2022/10/19 11:14:20;;;;;;;16.80;8.90;;;;;;;42.85;33.31;101215.16;5125755;27;21038;-68
2022/10/19 11:16:49;;;;;;;18.57;8.97;;;;;;;43.07;32.97;101215.97;5129689;27;20420;-68
2022/10/19 11:19:44;;;;;;;13.60;7.90;;;;;;;43.27;32.34;101203.44;5114180;28;20653;-68
2022/10/19 11:22:17;;;;;;;15.33;8.53;;;;;;;43.17;32.93;101197.28;5098116;28;20428;-67
2022/10/19 11:25:22;;;;;;;13.47;8.10;;;;;;;43.08;32.75;101201.19;5114156;28;20452;-67
2022/10/19 11:28:16;;;;;;;14.13;7.50;;;;;;;43.32;32.79;101189.56;5114895;28;20927;-69
2022/10/19 11:30:54;;;;;;;18.73;8.27;;;;;;;43.22;32.81;101179.88;5124053;27;20481;-70
2022/10/19 11:33:49;;;;;;;13.73;7.53;;;;;;;43.40;32.45;101180.53;5134283;27;20483;-67
2022/10/19 11:36:37;;;;;;;11.27;7.97;;;;;;;43.34;32.19;101177.19;5112950;27;20444;-68
2022/10/19 11:39:33;;;;;;;14.03;8.60;;;;;;;43.30;32.35;101178.19;5124919;27;20992;-68
2022/10/19 11:42:11;;;;;;;23.50;9.47;;;;;;;43.25;32.71;101178.41;5094624;28;20427;-68
2022/10/19 11:44:46;;;;;;;14.77;7.90;;;;;;;43.56;32.33;101180.69;5106896;28;20494;-69
2022/10/19 11:47:49;;;;;;;14.97;9.00;;;;;;;43.51;32.28;101173.50;5100268;28;20472;-69
2022/10/19 11:50:28;;;;;;;21.43;9.33;;;;;;;43.38;32.44;101166.38;5113587;28;20520;-73
2022/10/19 11:52:54;;;;;;;15.33;8.70;;;;;;;43.21;32.85;101172.00;5113580;28;20984;-68
2022/10/19 11:55:42;;;;;;;19.13;8.70;;;;;;;43.32;32.73;101156.81;5113232;28;20459;-68
2022/10/19 11:58:07;;;;;;;14.20;9.40;;;;;;;43.24;32.82;101144.84;5113538;28;20178;-69
2022/10/19 12:00:48;;;;;;;13.73;8.63;;;;;;;42.81;33.46;101135.09;5114000;28;20431;-76
2022/10/19 12:03:44;;;;;;;24.33;10.23;;;;;;;42.99;32.92;101132.25;5112035;28;20190;-69
2022/10/19 12:06:30;;;;;;;17.80;10.00;;;;;;;43.21;32.96;101126.41;5095719;28;20522;-69
2022/10/19 12:08:59;;;;;;;14.10;8.63;;;;;;;43.43;32.91;101117.84;5095756;27;20926;-70
2022/10/19 12:11:46;;;;;;;11.20;7.13;;;;;;;42.87;33.20;101114.66;5106614;28;20434;-70
2022/10/19 12:14:17;;;;;;;13.37;8.67;;;;;;;43.14;32.89;101102.38;5096726;27;20417;-70
2022/10/19 12:16:54;;;;;;;17.60;9.63;;;;;;;43.00;33.32;101104.63;5109231;28;20953;-70
2022/10/19 12:19:28;;;;;;;12.87;7.60;;;;;;;43.22;32.76;101094.44;5095741;28;20502;-71
2022/10/19 12:21:59;;;;;;;10.63;7.50;;;;;;;43.30;32.63;101090.81;5093756;28;20951;-69
2022/10/19 12:24:29;;;;;;;16.03;9.30;;;;;;;42.91;33.21;101092.97;5075518;28;20457;-69
2022/10/19 12:26:56;;;;;;;17.57;7.37;;;;;;;42.92;32.54;101094.56;5092952;28;20408;-68
2022/10/19 12:29:30;;;;;;;18.73;9.17;;;;;;;43.05;32.84;101095.44;5093583;28;20412;-68
2022/10/19 12:31:59;;;;;;;20.90;10.27;;;;;;;42.52;33.66;101086.84;5094222;28;20440;-69
2022/10/19 12:34:44;;;;;;;17.73;7.90;;;;;;;42.79;33.31;101082.00;5092280;28;20420;-68